マレ の空港の天気 - METARとTAF

マレ国際空港 ( VRMM / MLE ) - モルディブ Hulhule Island, North Male Atoll
飛行場実況気象(Metar)
観測時間05/26 05:00 MVT (05/26 00:00 UTC)
風向・風速西南西 7m/s
視程10km以上
天気現象
少しの雲 雲底高度 550m
全天の8割程度の雲 雲底高度 7920m
気温29℃
湿度89%
気圧1009hPa
METARVRMM 260000Z 25014KT 9999 FEW018 BKN260 29/27 Q1009 NOSIG
過去の天気等 Google飛行場航空写真 Wunderground天気予報

過去48時間のMETAR

飛行場予報(TAF)
発表時間: 5/26 04:00 MVT (5/25 23:00 UTC)
予報対象時間: 26日5時 MVT ~ 27日11時 MVT
風向・風速西 8m/s
視程10km以上
少しの塔状積雲 雲底高度 550m
26日5時 MVT ~ 26日11時 MVT に一時的に
視程6000m
天気現象弱いしゅう雨
少しの積乱雲 雲底高度 550m
TAF VRMM 252300Z 2600/2706 26015KT 9999 FEW018TCU
TEMPO 2600/2606 6000 -SHRA FEW018CB